KCMH Airport Diagram

We have created a template for each of the higher traffic airports in the vZID airspace. They include KCMH, KCRW, KCVG, KDAY, KIND, KLEX and KSDF. You wil find usefull information including the airport diagram, weather, and specific airport procedures.

KCMH Weather

[Source: ADDS]
METAR
KCMH 200751Z 10006KT 1SM R28L/P6000FT -SN BR OVC019 M02/M03 A3032 RMK AO2 SNB11 SLP278 P0002 T10171033 =
KCMH 200733Z 2008/2106 09008KT 1/2SM SN OVC008 FM201000 09010KT 1SM -FZRAPLSN OVC006 FM201300 10011KT 2SM -RA OVC006 FM201500 12012G18KT 4SM -RA OVC005 FM201900 14012KT P6SM -RA OVC005 FM202100 15012KT P6SM -RA OVC005 WS020/21045KT FM210100 19012KT 4SM -RA OVC005 WS020/21045KT
TAF
KCMH 200733Z 2008/2106 09008KT 1/2SM SN OVC008 FM201000 09010KT 1SM -FZRAPLSN OVC006 FM201300 10011KT 2SM -RA OVC006 FM201500 12012G18KT 4SM -RA OVC005 FM201900 14012KT P6SM -RA OVC005 FM202100 15012KT P6SM -RA OVC005 WS020/21045KT FM210100 19012KT 4SM -RA OVC005 WS020/21045KT =

KCMH Operations

Calm wind runway(s) up to 10 kts: Arriving/Departing 28L/R

Typically, Rw 10R/28L for departures to the West and South and Rw 10L/28R for departures to the North and East.

FBOs: Lane Aviation midfield near Tower, Signature South of Twy B.

Advise ATC if you have updated scenery for KCMH as there are significant changes to the runway/taxiways on the South side of the airport. Default scenery does not match the Airport Diagram available through the usual sources.

JSN Epic template designed by JoomlaShine.com